Greenwood Leflore Airport
KGWO : now visible

Airfield :











YOU CAN JOIN US ON...

 
LOGIN :

Register | Disclaimer

   EN    FR    IT 

 









Legend :    VFR   Marginal VFR   IFR   Intensive IFR   Very Intensive IFR
Visi :
Ceiling :
>= 8 km
>= 3000ft
5 to 8 km
1000 to 3000 ft
1500m to 5 km
500 to 1000 ft
800 to 1500m
200 to 500 ft
< 800m
< 200 ft
Symbols :   Thunderstorms  Fog  Heavy snow  Heavy precipitations  Wind > 20 kt






- Airport Elevation : 162 ft


KGWO - Greenwood Leflore

CURRENT METAR :
  • 031619Z AUTO VRB05KT 10SM FEW020 29/24 A2999 RMK AO2 T02940239

EXPIRED METARs :
  • 031604Z AUTO VRB03KT 10SM BKN019 29/24 A2999 RMK AO2 T02940239
  • 031553Z AUTO 34003KT 10SM SCT018 29/23 A2998 RMK AO2 SLP151 T02890233
  • 031453Z AUTO VRB03KT 10SM FEW016 28/23 A2999 RMK AO2 SLP154 T02780228 50002
  • 031353Z AUTO 00000KT 10SM CLR 27/23 A3000 RMK AO2 SLP157 T02670228

TAF KGWO
Valid from the 03 at 12:00 until the 04 at 12:00 UTC


031159Z 0312/0412 24003KT P6SM SKC
KZME FIR / North America



MET'MAP, your aeronautical weather chart ! - Copyright ORBIFLY December 2007 - Disclaimer

ORBIFLY MET'MAP TEAM :

Programming & Development : Alexandra Zaïnal
Concept & original design : Baudouin d'Aumeries
Assistance for programming : Marc-Olivier Méhu
Technical & hardware support : Manuel Goepfert

Contact : metmap@orbifly.com




SOURCES & CREDITS :

   NOAA       Earth
Advisory